createdAt,value
2017-06-29T06:53:38.695Z,26.95
2017-06-29T06:59:48.463Z,27.36
2017-06-29T07:00:22.458Z,27.43
2017-06-29T07:00:39.562Z,27.47
2017-06-29T07:00:57.478Z,27.48
2017-06-29T07:01:14.587Z,27.41
2017-06-29T07:01:32.298Z,27.37
2017-06-29T07:01:52.263Z,27.36
2017-06-29T07:02:11.617Z,27.35
2017-06-29T07:02:29.640Z,27.34
2017-06-29T07:02:46.435Z,27.31
2017-06-29T07:03:04.375Z,27.33
2017-06-29T07:03:20.226Z,27.32
2017-06-29T07:03:37.534Z,27.32
2017-06-29T07:03:55.014Z,27.28
2017-06-29T07:04:11.941Z,27.26
2017-06-29T07:04:26.011Z,27.26
2017-06-29T07:04:39.581Z,27.26
2017-06-29T07:04:56.273Z,27.25
2017-06-29T07:05:12.351Z,27.24
2017-06-29T07:05:29.246Z,27.24
2017-06-29T07:05:45.638Z,27.23
2017-06-29T07:06:05.393Z,27.26
2017-06-29T07:06:21.779Z,27.25
2017-06-29T07:06:39.397Z,27.26
2017-06-29T07:06:56.190Z,27.26
2017-06-29T07:07:12.395Z,27.26
2017-06-29T07:07:28.439Z,27.27
2017-06-29T07:07:47.969Z,27.28
2017-06-29T07:08:08.176Z,27.28
2017-06-29T07:08:22.611Z,27.27
2017-06-29T07:08:37.255Z,27.27
2017-06-29T07:08:56.813Z,27.28
2017-06-29T07:09:13.607Z,27.29
2017-06-29T07:09:33.680Z,27.32
2017-06-29T07:09:52.315Z,27.32
2017-06-29T07:10:09.724Z,27.29
2017-06-29T07:10:29.940Z,27.30
2017-06-29T07:10:47.819Z,27.33
2017-06-29T07:11:04.504Z,27.34
2017-06-29T07:11:20.278Z,27.34
2017-06-29T07:11:36.956Z,27.33
2017-06-29T07:11:55.600Z,27.35
2017-06-29T07:12:11.375Z,27.36
2017-06-29T07:12:27.548Z,27.36
2017-06-29T07:12:43.918Z,27.36
2017-06-29T07:13:03.392Z,27.35
2017-06-29T07:13:20.896Z,27.34
2017-06-29T07:13:36.569Z,27.35
2017-06-29T07:13:49.935Z,27.36
2017-06-29T07:14:07.494Z,27.38
2017-06-29T07:14:25.903Z,27.36
2017-06-29T07:14:43.232Z,27.35
2017-06-29T07:15:01.945Z,27.37
2017-06-29T07:15:19.700Z,27.38
2017-06-29T07:15:38.649Z,27.37
2017-06-29T07:15:56.549Z,27.40
2017-06-29T07:16:12.907Z,27.41
2017-06-29T07:16:33.867Z,27.41
2017-06-29T07:16:51.854Z,27.40
2017-06-29T07:17:10.487Z,27.41
2017-06-29T07:17:27.072Z,27.40
2017-06-29T07:17:46.118Z,27.43
2017-06-29T07:18:04.763Z,27.44
2017-06-29T07:18:24.417Z,27.45
2017-06-29T07:18:42.747Z,27.46
2017-06-29T07:19:01.793Z,27.45
2017-06-29T07:19:22.373Z,27.45
2017-06-29T07:19:39.678Z,27.46
2017-06-29T07:19:57.943Z,27.46
2017-06-29T07:20:14.394Z,27.45
2017-06-29T07:20:31.818Z,27.45
2017-06-29T07:20:46.953Z,27.46
2017-06-29T07:21:07.436Z,27.46
2017-06-29T07:21:23.715Z,27.47
2017-06-29T07:21:41.198Z,27.48
2017-06-29T07:22:00.374Z,27.49
2017-06-29T07:22:16.862Z,27.50
2017-06-29T07:22:35.785Z,27.49
2017-06-29T07:22:53.738Z,27.48
2017-06-29T07:23:09.397Z,27.48
2017-06-29T07:23:28.029Z,27.49
2017-06-29T07:23:44.208Z,27.49
2017-06-29T07:24:01.414Z,27.49
2017-06-29T07:24:18.106Z,27.47
2017-06-29T07:24:32.134Z,27.45
2017-06-29T07:24:45.758Z,27.45
2017-06-29T07:25:00.294Z,27.45
2017-06-29T07:25:14.648Z,27.45
2017-06-29T07:25:31.014Z,27.46
2017-06-29T07:25:47.762Z,27.47
2017-06-29T07:26:01.530Z,27.49
2017-06-29T07:26:22.313Z,27.49
2017-06-29T07:26:37.741Z,27.49
2017-06-29T07:26:51.732Z,27.51
2017-06-29T07:27:05.321Z,27.52
2017-06-29T07:27:20.378Z,27.54
2017-06-29T07:27:38.704Z,27.55
2017-06-29T07:27:54.985Z,27.58
2017-06-29T07:28:12.298Z,27.59
2017-06-29T07:28:30.709Z,27.61
2017-06-29T07:28:51.721Z,27.63
2017-06-29T07:29:11.375Z,27.65
2017-06-29T07:29:30.711Z,27.69
2017-06-29T07:29:49.980Z,27.71
2017-06-29T07:30:05.868Z,27.70
2017-06-29T07:30:23.362Z,27.69
2017-06-29T07:30:43.436Z,27.69
2017-06-29T07:31:03.198Z,27.71
2017-06-29T07:31:22.683Z,27.74
2017-06-29T07:31:40.837Z,27.76
2017-06-29T07:31:55.731Z,27.76
2017-06-29T07:32:13.719Z,27.77
2017-06-29T07:32:34.708Z,27.77
2017-06-29T07:32:53.655Z,27.75
2017-06-29T07:33:12.681Z,27.75
2017-06-29T07:33:32.127Z,27.76
2017-06-29T07:33:48.472Z,27.77
2017-06-29T07:34:07.714Z,27.78
2017-06-29T07:34:29.945Z,27.77
2017-06-29T07:34:48.582Z,27.80
2017-06-29T07:35:07.522Z,27.79
2017-06-29T07:35:26.775Z,27.79
2017-06-29T07:35:43.157Z,27.80
2017-06-29T07:35:59.950Z,27.80
2017-06-29T07:36:16.333Z,27.80
2017-06-29T07:36:32.720Z,27.80
2017-06-29T07:36:48.606Z,27.82
2017-06-29T07:37:07.627Z,27.83
2017-06-29T07:37:26.891Z,27.84
2017-06-29T07:37:42.478Z,27.83
2017-06-29T07:38:01.909Z,27.82
2017-06-29T07:38:23.210Z,27.82
2017-06-29T07:38:41.848Z,27.82
2017-06-29T07:38:58.228Z,27.81
2017-06-29T07:39:15.232Z,27.82
2017-06-29T07:39:33.253Z,27.81
2017-06-29T07:39:48.817Z,27.85
2017-06-29T07:40:06.734Z,27.83
2017-06-29T07:40:26.087Z,27.83
2017-06-29T07:40:44.561Z,27.84
2017-06-29T07:41:03.675Z,27.82
2017-06-29T07:41:23.128Z,27.84
2017-06-29T07:41:40.226Z,27.85
2017-06-29T07:42:00.090Z,27.87
2017-06-29T07:42:15.655Z,27.86
2017-06-29T07:42:33.376Z,27.82
2017-06-29T07:42:53.137Z,27.83
2017-06-29T07:43:10.527Z,27.85
2017-06-29T07:43:26.591Z,27.85
2017-06-29T07:43:42.580Z,27.86
2017-06-29T07:44:00.717Z,27.87
2017-06-29T07:44:20.543Z,27.87
2017-06-29T07:44:40.863Z,27.88
2017-06-29T07:44:54.995Z,27.86
2017-06-29T07:45:12.090Z,27.86
2017-06-29T07:45:25.606Z,27.86
2017-06-29T07:45:38.827Z,27.85
2017-06-29T07:45:52.909Z,27.86
2017-06-29T07:46:07.586Z,27.86
2017-06-29T07:46:28.890Z,27.87
2017-06-29T07:46:48.263Z,27.87
2017-06-29T07:47:02.791Z,27.88
2017-06-29T07:47:18.661Z,27.88
2017-06-29T07:47:33.307Z,27.89
2017-06-29T07:47:49.383Z,27.91
2017-06-29T07:48:08.428Z,27.91
2017-06-29T07:48:25.016Z,27.89
2017-06-29T07:48:41.804Z,27.93
2017-06-29T07:48:59.010Z,27.94
2017-06-29T07:49:14.166Z,27.93
2017-06-29T07:49:27.404Z,27.91
2017-06-29T07:49:41.456Z,27.90
2017-06-29T07:49:55.840Z,27.91
2017-06-29T07:50:10.460Z,27.93
2017-06-29T07:50:24.447Z,27.93
2017-06-29T07:50:37.488Z,27.95
2017-06-29T07:50:51.650Z,27.94
2017-06-29T07:51:06.437Z,27.95
2017-06-29T07:51:22.427Z,27.93
2017-06-29T07:51:44.467Z,27.94
2017-06-29T07:51:59.748Z,27.93
2017-06-29T07:52:14.284Z,27.92
2017-06-29T07:52:28.382Z,27.93
2017-06-29T07:52:49.105Z,27.94
2017-06-29T07:53:05.908Z,27.93
2017-06-29T07:53:27.605Z,27.93
2017-06-29T07:53:43.682Z,27.95
2017-06-29T07:54:00.168Z,27.95
2017-06-29T07:54:20.389Z,27.97
2017-06-29T07:54:42.383Z,27.95
2017-06-29T07:54:59.380Z,27.97
2017-06-29T07:55:20.376Z,27.99
2017-06-29T07:55:38.695Z,28.00
2017-06-29T07:55:55.895Z,27.98
2017-06-29T07:56:14.366Z,27.99
2017-06-29T07:56:30.499Z,27.99
2017-06-29T07:56:50.867Z,28.00
2017-06-29T07:57:08.582Z,28.00
2017-06-29T07:57:25.723Z,28.00
2017-06-29T07:57:41.452Z,27.97
2017-06-29T07:57:57.960Z,28.00
2017-06-29T07:58:17.341Z,28.01
2017-06-29T07:58:32.962Z,28.04
2017-06-29T07:58:52.828Z,28.03
2017-06-29T07:59:12.331Z,28.02
2017-06-29T07:59:30.328Z,28.02
2017-06-29T07:59:49.147Z,28.01
2017-06-29T08:00:07.277Z,27.98
2017-06-29T08:00:24.071Z,28.00
2017-06-29T08:00:43.013Z,28.01
2017-06-29T08:00:59.363Z,28.01
2017-06-29T08:01:17.212Z,28.00
2017-06-29T08:01:34.298Z,28.01
2017-06-29T08:01:51.512Z,28.04
2017-06-29T08:02:10.866Z,28.02
2017-06-29T08:02:29.197Z,28.01
2017-06-29T08:02:46.099Z,28.01
2017-06-29T08:03:05.317Z,28.00
2017-06-29T08:03:27.280Z,28.02
2017-06-29T08:03:45.591Z,28.04
2017-06-29T08:04:00.301Z,28.04
2017-06-29T08:04:17.638Z,28.03
2017-06-29T08:04:37.260Z,28.02
2017-06-29T08:04:54.813Z,28.05
2017-06-29T08:05:13.258Z,28.06
2017-06-29T08:05:36.247Z,28.05
2017-06-29T08:05:52.459Z,28.08
2017-06-29T08:06:11.240Z,28.08
2017-06-29T08:06:32.239Z,28.07
2017-06-29T08:06:51.955Z,28.08
2017-06-29T08:07:09.980Z,28.08
2017-06-29T08:07:26.671Z,28.09
2017-06-29T08:07:45.923Z,28.10
2017-06-29T08:08:04.862Z,28.11
2017-06-29T08:08:24.011Z,28.12
2017-06-29T08:08:45.720Z,28.12
2017-06-29T08:09:04.210Z,28.13
2017-06-29T08:09:21.469Z,28.12
2017-06-29T08:09:38.358Z,28.14
2017-06-29T08:09:58.192Z,28.13
2017-06-29T08:10:19.196Z,28.12
2017-06-29T08:10:36.726Z,28.13
2017-06-29T08:10:52.394Z,28.15
2017-06-29T08:11:12.230Z,28.16
2017-06-29T08:11:33.176Z,28.14
2017-06-29T08:11:51.371Z,28.11
2017-06-29T08:12:11.346Z,28.09
2017-06-29T08:12:28.644Z,28.11
2017-06-29T08:12:49.641Z,28.11
2017-06-29T08:13:09.180Z,28.13
2017-06-29T08:13:28.859Z,28.14
2017-06-29T08:13:49.180Z,28.15
2017-06-29T08:14:05.622Z,28.17
2017-06-29T08:14:22.420Z,28.17
2017-06-29T08:14:42.155Z,28.17
2017-06-29T08:15:00.912Z,28.17
2017-06-29T08:15:17.685Z,28.17
2017-06-29T08:15:38.139Z,28.17
2017-06-29T08:15:57.347Z,28.15
2017-06-29T08:16:15.050Z,28.16
2017-06-29T08:16:33.695Z,28.16
2017-06-29T08:16:54.118Z,28.16
2017-06-29T08:17:11.111Z,28.17
2017-06-29T08:17:30.827Z,28.18
2017-06-29T08:17:49.108Z,28.19
2017-06-29T08:18:09.636Z,28.17
2017-06-29T08:18:26.334Z,28.16
2017-06-29T08:18:44.246Z,28.14
2017-06-29T08:19:05.082Z,28.10
2017-06-29T08:19:20.292Z,28.11
2017-06-29T08:19:39.089Z,28.08
2017-06-29T08:19:56.959Z,28.09
2017-06-29T08:20:16.619Z,28.08
2017-06-29T08:20:34.023Z,28.10
2017-06-29T08:20:53.378Z,28.07
2017-06-29T08:21:11.603Z,28.08
2017-06-29T08:21:30.489Z,28.07
2017-06-29T08:21:50.518Z,28.07
2017-06-29T08:22:10.688Z,28.02
2017-06-29T08:22:27.386Z,27.98
2017-06-29T08:22:43.657Z,28.00
2017-06-29T08:23:01.586Z,27.97
2017-06-29T08:23:18.375Z,27.94
2017-06-29T08:23:37.045Z,27.90
2017-06-29T08:23:57.021Z,27.88
2017-06-29T08:24:16.434Z,27.84
2017-06-29T08:24:35.992Z,27.81
2017-06-29T08:24:52.579Z,27.83
2017-06-29T08:25:10.061Z,27.82
2017-06-29T08:25:28.949Z,27.75
2017-06-29T08:25:49.527Z,27.74
2017-06-29T08:26:06.515Z,27.73
2017-06-29T08:26:24.990Z,27.72
2017-06-29T08:26:41.016Z,27.70
2017-06-29T08:27:01.401Z,27.69
2017-06-29T08:27:17.372Z,27.72
2017-06-29T08:27:33.977Z,27.76
2017-06-29T08:27:50.555Z,27.78
2017-06-29T08:28:06.425Z,27.79
2017-06-29T08:28:24.966Z,27.77
2017-06-29T08:28:42.674Z,27.76
2017-06-29T08:29:01.083Z,27.78
2017-06-29T08:29:19.535Z,27.77
2017-06-29T08:29:37.018Z,27.78
2017-06-29T08:30:37.670Z,27.22
2017-06-29T08:30:55.501Z,27.06
2017-06-29T08:31:11.871Z,26.93
2017-06-29T08:31:30.712Z,26.83
2017-06-29T08:31:52.118Z,26.74
2017-06-29T08:32:08.601Z,26.69
2017-06-29T08:32:26.107Z,26.64
2017-06-29T08:32:44.437Z,26.60
2017-06-29T08:33:01.334Z,26.57
2017-06-29T08:33:20.906Z,26.53
2017-06-29T08:33:36.460Z,26.49
2017-06-29T08:33:57.956Z,26.48
2017-06-29T08:34:16.089Z,26.42
2017-06-29T08:34:31.036Z,26.42
2017-06-29T08:34:52.437Z,26.40
2017-06-29T08:35:12.616Z,26.39
2017-06-29T08:35:29.506Z,26.37
2017-06-29T08:35:47.426Z,26.33
2017-06-29T08:36:08.871Z,26.30
2017-06-29T08:36:30.866Z,26.26
2017-06-29T08:36:50.610Z,26.25
2017-06-29T08:37:08.860Z,26.23
2017-06-29T08:37:28.894Z,26.25
2017-06-29T08:37:50.851Z,26.25
2017-06-29T08:38:08.879Z,26.23
2017-06-29T08:38:30.651Z,26.19
2017-06-29T08:38:46.947Z,26.20
2017-06-29T08:39:07.516Z,26.18
2017-06-29T08:39:24.719Z,26.19
2017-06-29T08:39:44.826Z,26.18
2017-06-29T08:40:01.071Z,26.17
2017-06-29T08:40:19.819Z,26.17
2017-06-29T08:40:37.935Z,26.19
2017-06-29T08:40:57.292Z,26.21
2017-06-29T08:41:17.874Z,26.13
2017-06-29T08:41:35.690Z,26.13
2017-06-29T08:41:51.970Z,26.10
2017-06-29T08:42:08.763Z,26.08
2017-06-29T08:42:27.303Z,26.05
2017-06-29T08:42:44.306Z,26.07
2017-06-29T08:43:01.192Z,26.09
2017-06-29T08:43:18.908Z,26.09
2017-06-29T08:43:39.392Z,26.09
2017-06-29T08:43:57.105Z,26.09
2017-06-29T08:44:15.641Z,26.10
2017-06-29T08:44:31.410Z,26.09
2017-06-29T08:44:46.874Z,26.08
2017-06-29T08:45:04.071Z,26.09
2017-06-29T08:45:20.756Z,26.11
2017-06-29T08:45:40.734Z,26.13
2017-06-29T08:45:55.892Z,26.10
2017-06-29T08:46:13.399Z,26.10
2017-06-29T08:46:30.705Z,26.07
2017-06-29T08:46:45.749Z,26.07
2017-06-29T08:47:03.273Z,26.08
2017-06-29T08:47:19.139Z,26.08
2017-06-29T08:47:36.038Z,26.09
2017-06-29T08:47:55.724Z,26.08
2017-06-29T08:48:13.306Z,26.09
2017-06-29T08:48:33.717Z,26.09
2017-06-29T08:48:53.959Z,26.10
2017-06-29T08:49:12.711Z,26.10
2017-06-29T08:49:28.369Z,26.12
2017-06-29T08:49:45.166Z,26.13
2017-06-29T08:50:02.362Z,26.13
2017-06-29T08:50:18.443Z,26.14
2017-06-29T08:50:34.106Z,26.14
2017-06-29T08:50:47.637Z,26.09
2017-06-29T08:51:03.716Z,26.08
2017-06-29T08:51:23.156Z,26.10
2017-06-29T08:51:39.645Z,26.09
2017-06-29T08:52:00.684Z,26.11
2017-06-29T08:52:20.061Z,26.12
2017-06-29T08:52:39.161Z,26.13
2017-06-29T08:52:57.695Z,26.14
2017-06-29T08:53:16.105Z,26.15
2017-06-29T08:53:32.897Z,26.15
2017-06-29T08:53:49.288Z,26.15
2017-06-29T08:54:07.013Z,26.15
2017-06-29T08:54:23.075Z,26.15
2017-06-29T08:54:40.489Z,26.16
2017-06-29T08:54:57.780Z,26.16
2017-06-29T08:55:14.374Z,26.13
2017-06-29T08:55:30.963Z,26.13
2017-06-29T08:55:47.966Z,26.13
2017-06-29T08:56:09.668Z,26.13
2017-06-29T08:56:27.633Z,26.09
2017-06-29T08:56:48.590Z,26.03
2017-06-29T08:57:11.214Z,26.01
2017-06-29T08:57:31.746Z,25.98
2017-06-29T08:57:49.206Z,26.00
2017-06-29T08:58:08.604Z,26.01
2017-06-29T08:58:28.645Z,26.02
2017-06-29T08:58:50.592Z,26.01
2017-06-29T08:59:10.588Z,26.02
2017-06-29T08:59:27.511Z,26.03
2017-06-29T08:59:44.710Z,26.02
2017-06-29T09:00:03.555Z,26.03
2017-06-29T09:00:20.871Z,26.01
2017-06-29T09:00:36.218Z,26.03
2017-06-29T09:00:53.229Z,26.02
2017-06-29T09:01:12.777Z,26.04
2017-06-29T09:01:29.776Z,26.06
2017-06-29T09:01:50.257Z,26.05
2017-06-29T09:02:09.559Z,26.05
2017-06-29T09:02:28.146Z,26.03
2017-06-29T09:02:53.560Z,26.02
2017-06-29T09:03:12.523Z,26.03
2017-06-29T09:03:28.969Z,26.03
2017-06-29T09:03:44.739Z,26.03
2017-06-29T09:04:03.276Z,26.03
2017-06-29T09:04:22.565Z,26.05
2017-06-29T09:04:38.089Z,26.03
2017-06-29T09:04:54.988Z,26.02
2017-06-29T09:05:11.785Z,26.00
2017-06-29T09:05:32.976Z,25.99
2017-06-29T09:05:52.941Z,25.94
2017-06-29T09:06:11.891Z,25.94
2017-06-29T09:06:34.500Z,25.94
2017-06-29T09:06:57.496Z,25.91
2017-06-29T09:07:16.403Z,25.93
2017-06-29T09:07:34.113Z,25.94
2017-06-29T09:07:54.081Z,25.93
2017-06-29T09:08:11.803Z,25.90
2017-06-29T09:08:34.120Z,25.90
2017-06-29T09:08:52.473Z,25.87
2017-06-29T09:09:09.964Z,25.90
2017-06-29T09:09:30.497Z,25.92
2017-06-29T09:09:47.762Z,25.91
2017-06-29T09:10:10.295Z,25.94
2017-06-29T09:10:27.069Z,25.95
2017-06-29T09:10:46.365Z,25.96
2017-06-29T09:11:06.338Z,25.98
2017-06-29T09:11:22.981Z,25.98
2017-06-29T09:11:42.442Z,25.90
2017-06-29T09:11:59.245Z,25.92
2017-06-29T09:12:20.124Z,25.89
2017-06-29T09:12:40.426Z,25.90
2017-06-29T09:12:56.363Z,25.91
2017-06-29T09:13:16.026Z,25.90
2017-06-29T09:13:35.794Z,25.93
2017-06-29T09:13:51.412Z,25.93
2017-06-29T09:14:09.412Z,25.92
2017-06-29T09:14:27.296Z,25.93
2017-06-29T09:14:47.365Z,25.94
2017-06-29T09:15:04.977Z,25.96
2017-06-29T09:15:20.957Z,25.98
2017-06-29T09:15:39.079Z,26.00
2017-06-29T09:16:02.327Z,26.01
2017-06-29T09:16:21.063Z,26.01
2017-06-29T09:16:38.064Z,26.04
2017-06-29T09:16:56.375Z,26.05
2017-06-29T09:17:14.402Z,26.05
2017-06-29T09:17:30.491Z,26.04
2017-06-29T09:17:48.389Z,26.04
2017-06-29T09:18:05.817Z,26.05
2017-06-29T09:18:25.482Z,26.05
2017-06-29T09:18:45.401Z,26.06
2017-06-29T09:19:01.853Z,26.05
2017-06-29T09:19:21.083Z,26.04
2017-06-29T09:19:39.343Z,26.01
2017-06-29T09:19:57.539Z,26.01
2017-06-29T09:20:14.129Z,26.01
2017-06-29T09:20:31.329Z,26.03
2017-06-29T09:20:48.329Z,26.06
2017-06-29T09:21:04.920Z,26.07
2017-06-29T09:21:22.227Z,26.07
2017-06-29T09:21:38.382Z,26.06
2017-06-29T09:21:58.314Z,26.08
2017-06-29T09:22:14.739Z,26.08
2017-06-29T09:22:32.465Z,26.10
2017-06-29T09:22:50.380Z,26.12
2017-06-29T09:23:08.306Z,26.13
2017-06-29T09:23:29.709Z,26.14
2017-06-29T09:23:48.356Z,26.16
2017-06-29T09:24:05.313Z,26.17
2017-06-29T15:13:20.014Z,27.49
2017-06-29T15:13:45.018Z,27.47
2017-06-29T15:14:06.013Z,27.44
2017-06-29T15:14:24.857Z,27.42
2017-06-29T15:14:44.107Z,27.39
2017-06-29T15:15:03.663Z,27.41
2017-06-29T15:15:23.635Z,27.40
2017-06-29T15:15:45.646Z,27.39
2017-06-29T15:16:04.980Z,27.38
2017-06-29T15:16:25.485Z,27.38
2017-06-29T15:16:44.530Z,27.39
2017-06-29T15:17:05.522Z,27.36
2017-06-29T15:17:25.287Z,27.37
2017-06-29T15:17:46.661Z,27.37
2017-06-29T15:18:05.838Z,27.37
2017-06-29T15:18:21.806Z,27.37
2017-06-29T15:18:37.957Z,27.37
2017-06-29T15:18:55.947Z,27.36
2017-06-29T15:19:17.924Z,27.35
2017-06-29T15:19:36.457Z,27.34
2017-06-29T15:19:54.968Z,27.34
2017-06-29T15:20:16.929Z,27.34
2017-06-29T15:20:37.295Z,27.35
2017-06-29T15:20:59.925Z,27.34
2017-06-29T15:21:19.880Z,27.33
2017-06-29T15:21:36.910Z,27.35
2017-06-29T15:21:58.177Z,27.35
2017-06-29T15:22:15.484Z,27.36
2017-06-29T15:22:35.555Z,27.36
2017-06-29T15:22:54.806Z,27.35
2017-06-29T15:23:16.475Z,27.36
2017-06-29T15:23:33.418Z,27.36
2017-06-29T15:23:52.917Z,27.36
2017-06-29T15:24:12.889Z,27.37
2017-06-29T15:24:32.928Z,27.38
2017-06-29T15:24:52.222Z,27.36
2017-06-29T15:25:10.093Z,27.37
2017-06-29T15:25:29.327Z,27.36
2017-06-29T15:25:47.047Z,27.35
2017-06-29T15:26:06.864Z,27.36
2017-06-29T15:26:24.035Z,27.35
2017-06-29T15:26:42.237Z,27.35
2017-06-29T15:27:01.849Z,27.34
2017-06-29T15:27:19.820Z,27.35
2017-06-29T15:27:41.626Z,27.35
2017-06-29T15:28:00.063Z,27.35
2017-06-29T15:28:17.056Z,27.36
2017-06-29T15:28:33.445Z,27.35
2017-06-29T15:28:51.468Z,27.35
2017-06-29T15:29:10.821Z,27.35
2017-06-29T15:29:30.584Z,27.36
2017-06-29T15:29:50.763Z,27.35
2017-06-29T15:30:09.835Z,27.35
2017-06-29T15:30:26.815Z,27.33
2017-06-29T15:30:46.514Z,27.34
2017-06-29T15:31:03.354Z,27.34
2017-06-29T15:31:17.387Z,27.35
2017-06-29T15:31:38.273Z,27.34
2017-06-29T15:31:55.176Z,27.34
2017-06-29T15:32:15.753Z,27.34
2017-06-29T15:32:37.780Z,27.35
2017-06-29T15:32:55.381Z,27.35
2017-06-29T15:33:16.081Z,27.34
2017-06-29T15:33:32.829Z,27.34
2017-06-29T15:33:53.955Z,27.34
2017-06-29T15:34:14.826Z,27.33
2017-06-29T15:34:31.878Z,27.34
2017-06-29T15:34:50.412Z,27.34
2017-06-29T15:35:10.858Z,27.35
2017-06-29T15:35:32.109Z,27.36
2017-06-29T15:35:49.667Z,27.35
2017-06-29T15:36:05.950Z,27.36
2017-06-29T15:36:24.711Z,27.36
2017-06-29T15:36:44.143Z,27.36
2017-06-29T15:37:03.297Z,27.37
2017-06-29T15:37:27.391Z,27.37
2017-06-29T15:37:44.148Z,27.36
2017-06-29T15:38:06.713Z,27.36
2017-06-29T15:38:29.613Z,27.33
2017-06-29T15:38:51.714Z,27.31
2017-06-29T15:39:11.838Z,27.32
2017-06-29T15:39:30.710Z,27.31
2017-06-29T15:39:49.286Z,27.30
2017-06-29T15:40:08.959Z,27.29
2017-06-29T15:40:23.807Z,27.28
2017-06-29T15:40:40.702Z,27.28
2017-06-29T15:40:59.706Z,27.27
2017-06-29T15:41:19.222Z,27.26
2017-06-29T15:41:38.680Z,27.26
2017-06-29T15:41:57.382Z,27.25
2017-06-29T15:42:15.304Z,27.25
2017-06-29T15:42:36.661Z,27.22
2017-06-29T15:42:55.342Z,27.21
2017-06-29T15:43:15.514Z,27.20
2017-06-29T15:43:34.562Z,27.17
2017-06-29T15:43:53.303Z,27.14
2017-06-29T15:44:12.642Z,27.13
2017-06-29T15:44:32.523Z,27.12
2017-06-29T15:44:53.004Z,27.13
2017-06-29T15:45:14.628Z,27.13
2017-06-29T15:45:30.988Z,27.13
2017-06-29T15:45:49.735Z,27.12
2017-06-29T15:46:09.399Z,27.11
2017-06-29T15:46:28.626Z,27.10
2017-06-29T15:46:48.816Z,27.12
2017-06-29T15:47:11.607Z,27.13
2017-06-29T15:47:32.602Z,27.12
2017-06-29T15:47:55.597Z,27.12
2017-06-29T15:48:13.912Z,27.12
2017-06-29T15:48:34.215Z,27.13
2017-06-29T15:48:55.287Z,27.15
2017-06-29T15:49:19.582Z,27.14
2017-06-29T15:49:40.579Z,27.13
2017-06-29T15:49:59.788Z,27.11
2017-06-29T15:50:17.569Z,27.11
2017-06-29T15:50:38.415Z,27.12
2017-06-29T15:50:58.055Z,27.12
2017-06-29T15:51:18.188Z,27.13
2017-06-29T15:51:38.554Z,27.10
2017-06-29T15:52:00.549Z,27.10
2017-06-29T15:52:18.568Z,27.10
2017-06-29T15:52:38.434Z,27.09
2017-06-29T15:52:56.946Z,27.11
2017-06-29T15:53:17.548Z,27.09
2017-06-29T15:53:38.206Z,27.10
2017-06-29T15:53:58.526Z,27.09
2017-06-29T15:54:17.523Z,27.09
2017-06-29T15:54:37.095Z,27.06
2017-06-29T15:54:58.290Z,27.06
2017-06-29T15:55:18.763Z,27.05
2017-06-29T15:56:03.733Z,27.03
2017-06-29T15:56:20.003Z,27.03
2017-06-29T15:56:39.496Z,27.03
2017-06-29T15:56:58.402Z,27.04
2017-06-29T15:57:17.489Z,27.04
2017-06-29T15:57:34.521Z,27.04
2017-06-29T15:57:53.906Z,27.03
2017-06-29T15:58:16.326Z,27.01
2017-06-29T15:58:38.342Z,27.03
2017-06-29T15:58:54.831Z,27.02
2017-06-29T15:59:17.358Z,27.01
2017-06-29T15:59:38.473Z,27.02
2017-06-29T15:59:58.457Z,27.03
2017-06-29T16:00:15.112Z,27.03
2017-06-29T16:00:33.452Z,27.00
2017-06-29T16:00:54.505Z,26.99
2017-06-29T16:01:15.124Z,27.01
2017-06-29T16:01:36.439Z,27.02
2017-06-29T16:01:56.898Z,27.00
2017-06-29T16:02:17.271Z,27.02
2017-06-29T16:02:39.460Z,27.03
2017-06-29T16:03:01.425Z,27.03
2017-06-29T16:03:21.419Z,27.01
2017-06-29T16:03:41.039Z,27.00
2017-06-29T16:04:00.411Z,26.98
2017-06-29T16:04:20.971Z,26.98
2017-06-29T16:04:37.768Z,26.97
2017-06-29T16:04:55.891Z,26.95
2017-06-29T16:05:16.397Z,26.93
2017-06-29T16:05:38.190Z,26.95
2017-06-29T16:05:59.388Z,26.96
2017-06-29T16:06:19.385Z,26.94
2017-06-29T16:06:36.860Z,26.93
2017-06-29T16:06:57.376Z,26.95
2017-06-29T16:07:14.967Z,26.96
2017-06-29T16:07:36.368Z,26.96
2017-06-29T16:07:53.046Z,26.96
2017-06-29T16:08:12.905Z,26.93
2017-06-29T16:08:31.037Z,26.93
2017-06-29T16:08:51.919Z,26.94
2017-06-29T16:09:12.374Z,26.95
2017-06-29T16:09:34.346Z,26.93
2017-06-29T16:09:57.268Z,26.92
2017-06-29T16:10:15.589Z,26.91
2017-06-29T16:10:34.336Z,26.92
2017-06-29T16:10:52.338Z,26.93
2017-06-29T16:11:12.216Z,26.89
2017-06-29T16:11:30.537Z,26.88
2017-06-29T16:11:53.336Z,26.88
2017-06-29T16:12:15.311Z,26.91
2017-06-29T16:12:36.307Z,26.92
2017-06-29T16:12:56.303Z,26.91
2017-06-29T16:13:12.319Z,26.93
2017-06-29T16:13:31.289Z,26.91
2017-06-29T16:13:48.360Z,26.88
2017-06-29T16:14:08.290Z,26.87
2017-06-29T16:14:26.564Z,26.86
2017-06-29T16:14:45.107Z,26.85
2017-06-29T16:15:05.279Z,26.85
2017-06-29T16:15:26.273Z,26.85
2017-06-29T16:15:46.127Z,26.87
2017-06-29T16:16:04.577Z,26.89
2017-06-29T16:16:23.631Z,26.87
2017-06-29T16:16:42.322Z,26.87
2017-06-29T16:17:03.257Z,26.88
2017-06-29T16:17:21.155Z,26.89
2017-06-29T16:17:40.249Z,26.89
2017-06-29T16:18:00.244Z,26.89
2017-06-29T16:18:19.935Z,26.88
2017-06-29T16:18:38.236Z,26.88
2017-06-29T16:18:53.723Z,26.88
2017-06-29T16:19:11.342Z,26.90
2017-06-29T16:19:30.795Z,26.91
2017-06-29T16:19:48.222Z,26.90
2017-06-29T16:20:11.038Z,26.89
2017-06-29T16:20:34.211Z,26.90
2017-06-29T16:20:53.022Z,26.88
2017-06-29T16:21:14.209Z,26.88
2017-06-29T16:21:34.204Z,26.85
2017-06-29T16:21:54.781Z,26.85
2017-06-29T16:22:16.994Z,26.86
2017-06-29T16:22:34.498Z,26.86
2017-06-29T16:22:50.885Z,26.82
2017-06-29T16:23:10.650Z,26.82
2017-06-29T16:23:28.197Z,26.81
2017-06-29T16:23:48.175Z,26.83
2017-06-29T16:24:09.425Z,26.81
2017-06-29T16:24:28.677Z,26.83
2017-06-29T16:24:49.237Z,26.83
2017-06-29T16:25:09.175Z,26.85
2017-06-29T16:25:30.151Z,26.85
2017-06-29T16:25:48.147Z,26.85
2017-06-29T16:26:08.143Z,26.87
2017-06-29T16:26:26.638Z,26.88
2017-06-29T16:26:46.136Z,26.90
2017-06-29T16:27:03.810Z,26.89
2017-06-29T16:27:23.572Z,26.91
2017-06-29T16:27:45.690Z,26.91
2017-06-29T16:28:07.119Z,26.87
2017-06-29T16:28:25.118Z,26.88
2017-06-29T16:28:43.649Z,26.86
2017-06-29T16:29:01.319Z,26.86
2017-06-29T16:29:20.516Z,26.87
2017-06-29T16:29:38.332Z,26.88
2017-06-29T16:30:02.090Z,26.88
2017-06-29T16:30:16.939Z,26.87
2017-06-29T16:30:36.090Z,26.87
2017-06-29T16:30:58.083Z,26.87
2017-06-29T16:31:21.102Z,26.86
2017-06-29T16:31:38.655Z,26.87
2017-06-29T16:31:59.114Z,26.87
2017-06-29T16:32:18.072Z,26.88
2017-06-29T16:32:34.458Z,26.89
2017-06-29T16:32:51.566Z,26.90
2017-06-29T16:33:11.015Z,26.90
2017-06-29T16:33:29.074Z,26.91
2017-06-29T16:33:48.292Z,26.91
2017-06-29T16:34:07.049Z,26.92
2017-06-29T16:34:24.749Z,26.89
2017-06-29T16:34:44.039Z,26.87
2017-06-29T16:35:01.339Z,26.84
2017-06-29T16:35:23.833Z,26.82
2017-06-29T16:35:40.628Z,26.82
2017-06-29T16:36:00.034Z,26.83
2017-06-29T16:36:18.716Z,26.80
2017-06-29T16:36:37.965Z,26.80
2017-06-29T16:36:53.325Z,26.80
2017-06-29T16:37:11.968Z,26.81
2017-06-29T16:37:32.649Z,26.81
2017-06-29T16:37:54.000Z,26.83
2017-06-29T16:38:15.000Z,26.84
2017-06-29T16:38:37.993Z,26.85
2017-06-29T16:38:57.988Z,26.86
2017-06-29T16:39:17.101Z,26.85
2017-06-29T16:39:36.759Z,26.85
2017-06-29T16:39:52.736Z,26.86
2017-06-29T16:40:10.762Z,26.85
2017-06-29T16:40:31.439Z,26.85
2017-06-29T16:40:53.557Z,26.85
2017-06-29T16:41:13.965Z,26.86
2017-06-29T16:41:31.545Z,26.83
2017-06-29T16:41:47.826Z,26.81
2017-06-29T16:42:04.112Z,26.81
2017-06-29T16:42:24.977Z,26.82
2017-06-29T16:42:43.532Z,26.81
2017-06-29T16:43:03.606Z,26.76
2017-06-29T16:43:24.393Z,26.75
2017-06-29T16:43:46.774Z,26.76
2017-06-29T16:44:07.932Z,26.74
2017-06-29T16:44:22.936Z,26.75
2017-06-29T16:44:42.975Z,26.76
2017-06-29T16:45:02.938Z,26.78
2017-06-29T16:45:21.143Z,26.78
2017-06-29T16:45:38.335Z,26.79
2017-06-29T16:45:58.608Z,26.79
2017-06-29T16:46:20.896Z,26.80
2017-06-29T16:46:42.891Z,26.79
2017-06-29T16:47:00.659Z,26.79
2017-06-29T16:47:18.681Z,26.80
2017-06-29T16:47:36.193Z,26.81
2017-06-29T16:47:53.394Z,26.81
2017-06-29T16:48:10.319Z,26.81